sensor_id;sensor_type;location;lat;lon;timestamp;P1;durP1;ratioP1;P2;durP2;ratioP2
46931;SDS011;32670;51.464;11.964;2023-06-19T00:02:02;6.13;;;5.67;;
46931;SDS011;32670;51.464;11.964;2023-06-19T00:04:27;5.87;;;5.37;;
46931;SDS011;32670;51.464;11.964;2023-06-19T00:06:53;5.77;;;5.37;;
46931;SDS011;32670;51.464;11.964;2023-06-19T00:09:19;5.70;;;5.30;;
46931;SDS011;32670;51.464;11.964;2023-06-19T00:11:44;5.63;;;5.13;;
46931;SDS011;32670;51.464;11.964;2023-06-19T00:14:10;5.90;;;5.40;;
46931;SDS011;32670;51.464;11.964;2023-06-19T00:16:36;6.10;;;5.60;;
46931;SDS011;32670;51.464;11.964;2023-06-19T00:19:01;6.30;;;5.90;;
46931;SDS011;32670;51.464;11.964;2023-06-19T00:21:28;6.37;;;5.77;;
46931;SDS011;32670;51.464;11.964;2023-06-19T00:23:54;6.20;;;5.53;;
46931;SDS011;32670;51.464;11.964;2023-06-19T00:26:20;6.40;;;5.90;;
46931;SDS011;32670;51.464;11.964;2023-06-19T00:28:47;5.67;;;5.27;;
46931;SDS011;32670;51.464;11.964;2023-06-19T00:31:13;6.50;;;5.90;;
46931;SDS011;32670;51.464;11.964;2023-06-19T00:33:40;6.27;;;5.70;;
46931;SDS011;32670;51.464;11.964;2023-06-19T00:36:08;6.17;;;5.67;;
46931;SDS011;32670;51.464;11.964;2023-06-19T00:38:40;6.43;;;5.90;;
46931;SDS011;32670;51.464;11.964;2023-06-19T00:41:05;6.40;;;5.90;;
46931;SDS011;32670;51.464;11.964;2023-06-19T00:43:31;6.30;;;5.23;;
46931;SDS011;32670;51.464;11.964;2023-06-19T00:45:57;5.80;;;5.30;;
46931;SDS011;32670;51.464;11.964;2023-06-19T00:48:23;6.30;;;5.70;;
46931;SDS011;32670;51.464;11.964;2023-06-19T00:50:50;6.60;;;5.83;;
46931;SDS011;32670;51.464;11.964;2023-06-19T00:53:16;5.90;;;5.50;;
46931;SDS011;32670;51.464;11.964;2023-06-19T00:55:44;6.47;;;6.00;;
46931;SDS011;32670;51.464;11.964;2023-06-19T00:58:10;6.67;;;5.87;;
46931;SDS011;32670;51.464;11.964;2023-06-19T01:00:36;6.37;;;5.77;;
46931;SDS011;32670;51.464;11.964;2023-06-19T01:03:01;6.50;;;6.00;;
46931;SDS011;32670;51.464;11.964;2023-06-19T01:05:27;6.10;;;5.60;;
46931;SDS011;32670;51.464;11.964;2023-06-19T01:10:54;6.23;;;5.70;;
46931;SDS011;32670;51.464;11.964;2023-06-19T01:13:25;6.47;;;5.87;;
46931;SDS011;32670;51.464;11.964;2023-06-19T01:15:59;6.23;;;5.80;;
46931;SDS011;32670;51.464;11.964;2023-06-19T01:18:27;5.90;;;5.50;;
46931;SDS011;32670;51.464;11.964;2023-06-19T01:20:56;6.53;;;5.90;;
46931;SDS011;32670;51.464;11.964;2023-06-19T01:23:22;6.83;;;6.23;;
46931;SDS011;32670;51.464;11.964;2023-06-19T01:25:47;6.50;;;6.00;;
46931;SDS011;32670;51.464;11.964;2023-06-19T01:28:12;7.57;;;5.77;;
46931;SDS011;32670;51.464;11.964;2023-06-19T01:30:39;5.97;;;5.47;;
46931;SDS011;32670;51.464;11.964;2023-06-19T01:33:09;6.57;;;5.97;;
46931;SDS011;32670;51.464;11.964;2023-06-19T01:35:36;6.87;;;6.10;;
46931;SDS011;32670;51.464;11.964;2023-06-19T01:38:04;6.20;;;5.70;;
46931;SDS011;32670;51.464;11.964;2023-06-19T01:40:32;6.90;;;6.40;;
46931;SDS011;32670;51.464;11.964;2023-06-19T01:42:59;6.27;;;5.77;;
46931;SDS011;32670;51.464;11.964;2023-06-19T01:45:26;6.70;;;6.20;;
46931;SDS011;32670;51.464;11.964;2023-06-19T01:47:54;7.23;;;6.03;;
46931;SDS011;32670;51.464;11.964;2023-06-19T01:50:20;6.80;;;6.13;;
46931;SDS011;32670;51.464;11.964;2023-06-19T01:52:47;6.53;;;5.60;;
46931;SDS011;32670;51.464;11.964;2023-06-19T01:55:12;6.07;;;5.67;;
46931;SDS011;32670;51.464;11.964;2023-06-19T01:57:38;6.23;;;5.70;;
46931;SDS011;32670;51.464;11.964;2023-06-19T02:00:04;6.43;;;5.83;;
46931;SDS011;32670;51.464;11.964;2023-06-19T02:02:32;6.03;;;5.60;;
46931;SDS011;32670;51.464;11.964;2023-06-19T02:04:58;6.27;;;5.77;;
46931;SDS011;32670;51.464;11.964;2023-06-19T02:07:23;6.70;;;6.10;;
46931;SDS011;32670;51.464;11.964;2023-06-19T02:09:49;6.57;;;5.80;;
46931;SDS011;32670;51.464;11.964;2023-06-19T02:12:14;6.50;;;5.87;;
46931;SDS011;32670;51.464;11.964;2023-06-19T02:14:39;6.70;;;6.20;;
46931;SDS011;32670;51.464;11.964;2023-06-19T02:17:05;6.47;;;5.97;;
46931;SDS011;32670;51.464;11.964;2023-06-19T02:19:31;6.80;;;6.20;;
46931;SDS011;32670;51.464;11.964;2023-06-19T02:21:56;6.57;;;5.90;;
46931;SDS011;32670;51.464;11.964;2023-06-19T02:24:21;8.40;;;6.30;;
46931;SDS011;32670;51.464;11.964;2023-06-19T02:26:47;6.60;;;6.10;;
46931;SDS011;32670;51.464;11.964;2023-06-19T02:29:12;6.40;;;5.90;;
46931;SDS011;32670;51.464;11.964;2023-06-19T02:31:38;6.33;;;5.73;;
46931;SDS011;32670;51.464;11.964;2023-06-19T02:34:04;6.80;;;6.20;;
46931;SDS011;32670;51.464;11.964;2023-06-19T02:36:29;6.37;;;5.87;;
46931;SDS011;32670;51.464;11.964;2023-06-19T02:38:55;6.60;;;6.10;;
46931;SDS011;32670;51.464;11.964;2023-06-19T02:41:21;6.50;;;6.00;;
46931;SDS011;32670;51.464;11.964;2023-06-19T02:43:46;6.47;;;5.97;;
46931;SDS011;32670;51.464;11.964;2023-06-19T02:46:12;6.63;;;6.13;;
46931;SDS011;32670;51.464;11.964;2023-06-19T02:48:37;6.93;;;6.33;;
46931;SDS011;32670;51.464;11.964;2023-06-19T02:51:03;6.37;;;5.87;;
46931;SDS011;32670;51.464;11.964;2023-06-19T02:53:28;7.90;;;6.30;;
46931;SDS011;32670;51.464;11.964;2023-06-19T02:55:54;6.80;;;6.13;;
46931;SDS011;32670;51.464;11.964;2023-06-19T02:58:19;7.00;;;6.40;;
46931;SDS011;32670;51.464;11.964;2023-06-19T03:00:45;6.53;;;5.93;;
46931;SDS011;32670;51.464;11.964;2023-06-19T03:03:11;7.00;;;6.50;;
46931;SDS011;32670;51.464;11.964;2023-06-19T03:05:37;6.50;;;5.90;;
46931;SDS011;32670;51.464;11.964;2023-06-19T03:08:03;6.80;;;6.30;;
46931;SDS011;32670;51.464;11.964;2023-06-19T03:10:29;6.90;;;6.17;;
46931;SDS011;32670;51.464;11.964;2023-06-19T03:12:54;6.83;;;6.20;;
46931;SDS011;32670;51.464;11.964;2023-06-19T03:15:20;6.40;;;5.90;;
46931;SDS011;32670;51.464;11.964;2023-06-19T03:17:46;6.73;;;6.13;;
46931;SDS011;32670;51.464;11.964;2023-06-19T03:20:12;6.53;;;5.93;;
46931;SDS011;32670;51.464;11.964;2023-06-19T03:22:40;6.03;;;5.63;;
46931;SDS011;32670;51.464;11.964;2023-06-19T03:25:07;6.63;;;6.03;;
46931;SDS011;32670;51.464;11.964;2023-06-19T03:27:33;6.60;;;6.10;;
46931;SDS011;32670;51.464;11.964;2023-06-19T03:29:58;6.97;;;6.37;;
46931;SDS011;32670;51.464;11.964;2023-06-19T03:32:24;6.87;;;6.27;;
46931;SDS011;32670;51.464;11.964;2023-06-19T03:34:49;7.20;;;6.50;;
46931;SDS011;32670;51.464;11.964;2023-06-19T03:37:15;6.43;;;5.83;;
46931;SDS011;32670;51.464;11.964;2023-06-19T03:39:41;6.90;;;6.30;;
46931;SDS011;32670;51.464;11.964;2023-06-19T03:42:07;6.57;;;6.07;;
46931;SDS011;32670;51.464;11.964;2023-06-19T03:44:32;7.00;;;6.40;;
46931;SDS011;32670;51.464;11.964;2023-06-19T03:46:58;6.77;;;6.07;;
46931;SDS011;32670;51.464;11.964;2023-06-19T03:49:23;6.60;;;6.00;;
46931;SDS011;32670;51.464;11.964;2023-06-19T03:51:49;6.67;;;6.17;;
46931;SDS011;32670;51.464;11.964;2023-06-19T03:54:15;6.37;;;5.93;;
46931;SDS011;32670;51.464;11.964;2023-06-19T03:56:40;6.83;;;6.07;;
46931;SDS011;32670;51.464;11.964;2023-06-19T03:59:06;6.40;;;5.87;;
46931;SDS011;32670;51.464;11.964;2023-06-19T04:01:32;8.03;;;6.97;;
46931;SDS011;32670;51.464;11.964;2023-06-19T04:03:57;6.70;;;6.20;;
46931;SDS011;32670;51.464;11.964;2023-06-19T04:06:24;8.53;;;6.20;;
46931;SDS011;32670;51.464;11.964;2023-06-19T04:08:49;6.30;;;5.70;;
46931;SDS011;32670;51.464;11.964;2023-06-19T04:11:14;6.80;;;6.10;;
46931;SDS011;32670;51.464;11.964;2023-06-19T04:13:40;6.97;;;6.10;;
46931;SDS011;32670;51.464;11.964;2023-06-19T04:16:05;6.83;;;6.23;;
46931;SDS011;32670;51.464;11.964;2023-06-19T04:18:31;6.73;;;6.23;;
46931;SDS011;32670;51.464;11.964;2023-06-19T04:20:56;10.27;;;6.27;;
46931;SDS011;32670;51.464;11.964;2023-06-19T04:23:22;8.00;;;6.20;;
46931;SDS011;32670;51.464;11.964;2023-06-19T04:25:47;7.00;;;6.40;;
46931;SDS011;32670;51.464;11.964;2023-06-19T04:28:13;7.03;;;6.40;;
46931;SDS011;32670;51.464;11.964;2023-06-19T04:30:38;7.23;;;6.20;;
46931;SDS011;32670;51.464;11.964;2023-06-19T04:33:04;6.50;;;6.00;;
46931;SDS011;32670;51.464;11.964;2023-06-19T04:35:31;12.17;;;5.87;;
46931;SDS011;32670;51.464;11.964;2023-06-19T04:37:56;6.77;;;6.10;;
46931;SDS011;32670;51.464;11.964;2023-06-19T04:40:26;6.87;;;6.00;;
46931;SDS011;32670;51.464;11.964;2023-06-19T04:42:51;7.07;;;6.37;;
46931;SDS011;32670;51.464;11.964;2023-06-19T04:45:18;6.23;;;5.73;;
46931;SDS011;32670;51.464;11.964;2023-06-19T04:47:45;6.10;;;5.57;;
46931;SDS011;32670;51.464;11.964;2023-06-19T04:50:10;7.20;;;5.60;;
46931;SDS011;32670;51.464;11.964;2023-06-19T04:52:36;6.63;;;6.03;;
46931;SDS011;32670;51.464;11.964;2023-06-19T04:55:02;7.63;;;6.30;;
46931;SDS011;32670;51.464;11.964;2023-06-19T04:57:30;6.40;;;5.83;;
46931;SDS011;32670;51.464;11.964;2023-06-19T04:59:55;7.80;;;6.10;;
46931;SDS011;32670;51.464;11.964;2023-06-19T05:02:21;6.53;;;5.70;;
46931;SDS011;32670;51.464;11.964;2023-06-19T05:04:48;8.40;;;5.87;;
46931;SDS011;32670;51.464;11.964;2023-06-19T05:07:14;6.50;;;5.97;;
46931;SDS011;32670;51.464;11.964;2023-06-19T05:09:40;6.00;;;5.50;;
46931;SDS011;32670;51.464;11.964;2023-06-19T05:12:06;8.37;;;6.17;;
46931;SDS011;32670;51.464;11.964;2023-06-19T05:14:31;6.80;;;6.20;;
46931;SDS011;32670;51.464;11.964;2023-06-19T05:16:57;6.30;;;5.70;;
46931;SDS011;32670;51.464;11.964;2023-06-19T05:19:22;6.50;;;5.90;;
46931;SDS011;32670;51.464;11.964;2023-06-19T05:21:48;6.47;;;5.97;;
46931;SDS011;32670;51.464;11.964;2023-06-19T05:24:13;6.80;;;6.20;;
46931;SDS011;32670;51.464;11.964;2023-06-19T05:26:38;6.70;;;6.10;;
46931;SDS011;32670;51.464;11.964;2023-06-19T05:29:04;6.17;;;5.67;;
46931;SDS011;32670;51.464;11.964;2023-06-19T05:31:33;7.00;;;6.30;;
46931;SDS011;32670;51.464;11.964;2023-06-19T05:33:59;9.50;;;6.40;;
46931;SDS011;32670;51.464;11.964;2023-06-19T05:36:24;6.40;;;5.90;;
46931;SDS011;32670;51.464;11.964;2023-06-19T05:38:50;6.70;;;6.10;;
46931;SDS011;32670;51.464;11.964;2023-06-19T05:41:15;6.87;;;5.77;;
46931;SDS011;32670;51.464;11.964;2023-06-19T05:43:41;6.30;;;5.70;;
46931;SDS011;32670;51.464;11.964;2023-06-19T05:46:06;6.80;;;6.10;;
46931;SDS011;32670;51.464;11.964;2023-06-19T05:48:32;6.97;;;6.47;;
46931;SDS011;32670;51.464;11.964;2023-06-19T05:50:57;14.70;;;6.97;;
46931;SDS011;32670;51.464;11.964;2023-06-19T05:53:23;8.47;;;7.07;;
46931;SDS011;32670;51.464;11.964;2023-06-19T05:55:48;9.87;;;6.73;;
46931;SDS011;32670;51.464;11.964;2023-06-19T05:58:14;9.10;;;6.50;;
46931;SDS011;32670;51.464;11.964;2023-06-19T06:00:39;6.83;;;6.20;;
46931;SDS011;32670;51.464;11.964;2023-06-19T06:03:05;7.20;;;6.50;;
46931;SDS011;32670;51.464;11.964;2023-06-19T06:05:30;9.93;;;6.40;;
46931;SDS011;32670;51.464;11.964;2023-06-19T06:07:56;7.33;;;6.63;;
46931;SDS011;32670;51.464;11.964;2023-06-19T06:10:21;8.37;;;6.97;;
46931;SDS011;32670;51.464;11.964;2023-06-19T06:12:48;6.60;;;5.97;;
46931;SDS011;32670;51.464;11.964;2023-06-19T06:15:14;7.57;;;6.57;;
46931;SDS011;32670;51.464;11.964;2023-06-19T06:17:40;6.83;;;6.23;;
46931;SDS011;32670;51.464;11.964;2023-06-19T06:20:05;7.23;;;6.43;;
46931;SDS011;32670;51.464;11.964;2023-06-19T06:22:38;6.93;;;6.33;;
46931;SDS011;32670;51.464;11.964;2023-06-19T06:25:04;8.77;;;6.97;;
46931;SDS011;32670;51.464;11.964;2023-06-19T06:27:30;9.13;;;6.90;;
46931;SDS011;32670;51.464;11.964;2023-06-19T06:29:56;10.10;;;7.23;;
46931;SDS011;32670;51.464;11.964;2023-06-19T06:32:21;7.60;;;6.80;;
46931;SDS011;32670;51.464;11.964;2023-06-19T06:34:47;9.83;;;7.07;;
46931;SDS011;32670;51.464;11.964;2023-06-19T06:37:12;7.90;;;7.03;;
46931;SDS011;32670;51.464;11.964;2023-06-19T06:39:38;7.07;;;6.37;;
46931;SDS011;32670;51.464;11.964;2023-06-19T06:42:03;8.03;;;7.10;;
46931;SDS011;32670;51.464;11.964;2023-06-19T06:44:29;8.23;;;7.23;;
46931;SDS011;32670;51.464;11.964;2023-06-19T06:46:54;9.03;;;7.33;;
46931;SDS011;32670;51.464;11.964;2023-06-19T06:49:20;8.63;;;7.07;;
46931;SDS011;32670;51.464;11.964;2023-06-19T06:51:47;8.10;;;7.27;;
46931;SDS011;32670;51.464;11.964;2023-06-19T06:54:12;24.83;;;8.17;;
46931;SDS011;32670;51.464;11.964;2023-06-19T06:56:38;26.17;;;7.97;;
46931;SDS011;32670;51.464;11.964;2023-06-19T06:59:03;16.27;;;8.47;;
46931;SDS011;32670;51.464;11.964;2023-06-19T07:01:29;14.40;;;7.77;;
46931;SDS011;32670;51.464;11.964;2023-06-19T07:03:54;11.77;;;7.63;;
46931;SDS011;32670;51.464;11.964;2023-06-19T07:06:20;12.20;;;7.93;;
46931;SDS011;32670;51.464;11.964;2023-06-19T07:08:45;9.83;;;7.87;;
46931;SDS011;32670;51.464;11.964;2023-06-19T07:11:12;9.07;;;7.23;;
46931;SDS011;32670;51.464;11.964;2023-06-19T07:13:38;14.47;;;7.80;;
46931;SDS011;32670;51.464;11.964;2023-06-19T07:16:04;9.20;;;8.20;;
46931;SDS011;32670;51.464;11.964;2023-06-19T07:18:30;9.17;;;7.40;;
46931;SDS011;32670;51.464;11.964;2023-06-19T07:20:55;8.77;;;7.30;;
46931;SDS011;32670;51.464;11.964;2023-06-19T07:23:21;8.27;;;7.47;;
46931;SDS011;32670;51.464;11.964;2023-06-19T07:25:46;8.40;;;7.57;;
46931;SDS011;32670;51.464;11.964;2023-06-19T07:28:12;9.57;;;7.90;;
46931;SDS011;32670;51.464;11.964;2023-06-19T07:30:38;9.07;;;8.17;;
46931;SDS011;32670;51.464;11.964;2023-06-19T07:33:04;12.17;;;8.33;;
46931;SDS011;32670;51.464;11.964;2023-06-19T07:35:30;8.57;;;7.77;;
46931;SDS011;32670;51.464;11.964;2023-06-19T07:37:55;10.13;;;7.87;;
46931;SDS011;32670;51.464;11.964;2023-06-19T07:40:21;10.60;;;8.03;;
46931;SDS011;32670;51.464;11.964;2023-06-19T07:42:46;11.10;;;7.73;;
46931;SDS011;32670;51.464;11.964;2023-06-19T07:45:12;9.47;;;7.50;;
46931;SDS011;32670;51.464;11.964;2023-06-19T07:47:38;8.87;;;7.93;;
46931;SDS011;32670;51.464;11.964;2023-06-19T07:50:03;9.07;;;7.80;;
46931;SDS011;32670;51.464;11.964;2023-06-19T07:52:29;9.90;;;8.17;;
46931;SDS011;32670;51.464;11.964;2023-06-19T07:54:55;11.77;;;8.10;;
46931;SDS011;32670;51.464;11.964;2023-06-19T07:57:22;9.13;;;8.33;;
46931;SDS011;32670;51.464;11.964;2023-06-19T07:59:49;9.83;;;8.83;;
46931;SDS011;32670;51.464;11.964;2023-06-19T08:02:15;10.17;;;7.90;;
46931;SDS011;32670;51.464;11.964;2023-06-19T08:04:41;9.20;;;8.27;;
46931;SDS011;32670;51.464;11.964;2023-06-19T08:07:06;9.70;;;8.67;;
46931;SDS011;32670;51.464;11.964;2023-06-19T08:09:32;9.67;;;8.67;;
46931;SDS011;32670;51.464;11.964;2023-06-19T08:11:57;12.23;;;8.50;;
46931;SDS011;32670;51.464;11.964;2023-06-19T08:14:23;9.87;;;8.50;;
46931;SDS011;32670;51.464;11.964;2023-06-19T08:16:48;9.50;;;8.43;;
46931;SDS011;32670;51.464;11.964;2023-06-19T08:19:14;8.67;;;7.87;;
46931;SDS011;32670;51.464;11.964;2023-06-19T08:21:39;9.50;;;8.70;;
46931;SDS011;32670;51.464;11.964;2023-06-19T08:24:05;10.43;;;8.50;;
46931;SDS011;32670;51.464;11.964;2023-06-19T08:26:31;8.97;;;8.13;;
46931;SDS011;32670;51.464;11.964;2023-06-19T08:28:57;9.90;;;8.20;;
46931;SDS011;32670;51.464;11.964;2023-06-19T08:31:22;10.13;;;8.80;;
46931;SDS011;32670;51.464;11.964;2023-06-19T08:33:52;9.53;;;8.63;;
46931;SDS011;32670;51.464;11.964;2023-06-19T08:36:21;9.60;;;8.70;;
46931;SDS011;32670;51.464;11.964;2023-06-19T08:38:47;8.50;;;7.23;;
46931;SDS011;32670;51.464;11.964;2023-06-19T08:41:15;9.97;;;9.07;;
46931;SDS011;32670;51.464;11.964;2023-06-19T08:43:43;11.37;;;9.30;;
46931;SDS011;32670;51.464;11.964;2023-06-19T08:46:16;12.80;;;8.60;;
46931;SDS011;32670;51.464;11.964;2023-06-19T08:48:44;10.40;;;9.40;;
46931;SDS011;32670;51.464;11.964;2023-06-19T08:51:11;9.17;;;8.40;;
46931;SDS011;32670;51.464;11.964;2023-06-19T08:53:44;9.83;;;8.93;;
46931;SDS011;32670;51.464;11.964;2023-06-19T08:56:11;10.93;;;9.33;;
46931;SDS011;32670;51.464;11.964;2023-06-19T08:58:37;11.03;;;10.03;;
46931;SDS011;32670;51.464;11.964;2023-06-19T09:01:03;10.40;;;9.53;;
46931;SDS011;32670;51.464;11.964;2023-06-19T09:03:28;10.93;;;9.93;;
46931;SDS011;32670;51.464;11.964;2023-06-19T09:05:54;12.13;;;10.30;;
46931;SDS011;32670;51.464;11.964;2023-06-19T09:08:20;11.17;;;10.07;;
46931;SDS011;32670;51.464;11.964;2023-06-19T09:10:56;11.33;;;10.17;;
46931;SDS011;32670;51.464;11.964;2023-06-19T09:13:27;10.37;;;9.13;;
46931;SDS011;32670;51.464;11.964;2023-06-19T09:15:59;11.00;;;10.10;;
46931;SDS011;32670;51.464;11.964;2023-06-19T09:18:30;11.10;;;9.50;;
46931;SDS011;32670;51.464;11.964;2023-06-19T09:20:56;11.03;;;10.03;;
46931;SDS011;32670;51.464;11.964;2023-06-19T09:23:21;10.10;;;9.20;;
46931;SDS011;32670;51.464;11.964;2023-06-19T09:25:51;10.50;;;9.50;;
46931;SDS011;32670;51.464;11.964;2023-06-19T09:28:18;11.03;;;9.30;;
46931;SDS011;32670;51.464;11.964;2023-06-19T09:31:00;10.00;;;9.10;;
46931;SDS011;32670;51.464;11.964;2023-06-19T09:33:28;10.40;;;9.40;;
46931;SDS011;32670;51.464;11.964;2023-06-19T09:35:58;10.00;;;9.00;;
46931;SDS011;32670;51.464;11.964;2023-06-19T09:38:25;10.30;;;9.40;;
46931;SDS011;32670;51.464;11.964;2023-06-19T09:40:52;10.13;;;9.23;;
46931;SDS011;32670;51.464;11.964;2023-06-19T09:43:18;9.67;;;8.77;;
46931;SDS011;32670;51.464;11.964;2023-06-19T09:45:48;9.90;;;8.90;;
46931;SDS011;32670;51.464;11.964;2023-06-19T09:48:18;10.27;;;9.37;;
46931;SDS011;32670;51.464;11.964;2023-06-19T09:50:47;10.20;;;9.30;;
46931;SDS011;32670;51.464;11.964;2023-06-19T09:53:16;10.60;;;9.23;;
46931;SDS011;32670;51.464;11.964;2023-06-19T09:55:44;10.80;;;9.70;;
46931;SDS011;32670;51.464;11.964;2023-06-19T09:58:11;12.03;;;10.43;;
46931;SDS011;32670;51.464;11.964;2023-06-19T10:00:36;11.00;;;10.10;;
46931;SDS011;32670;51.464;11.964;2023-06-19T10:03:02;10.37;;;9.57;;
46931;SDS011;32670;51.464;11.964;2023-06-19T10:05:30;10.83;;;9.90;;
46931;SDS011;32670;51.464;11.964;2023-06-19T10:07:57;10.80;;;9.77;;
46931;SDS011;32670;51.464;11.964;2023-06-19T10:10:26;10.87;;;9.97;;
46931;SDS011;32670;51.464;11.964;2023-06-19T10:12:56;10.67;;;9.73;;
46931;SDS011;32670;51.464;11.964;2023-06-19T10:15:24;10.73;;;9.73;;
46931;SDS011;32670;51.464;11.964;2023-06-19T10:17:52;10.97;;;10.07;;
46931;SDS011;32670;51.464;11.964;2023-06-19T10:20:25;10.90;;;9.83;;
46931;SDS011;32670;51.464;11.964;2023-06-19T10:23:08;11.10;;;10.00;;
46931;SDS011;32670;51.464;11.964;2023-06-19T10:25:44;10.40;;;9.50;;
46931;SDS011;32670;51.464;11.964;2023-06-19T10:28:24;10.60;;;9.70;;
46931;SDS011;32670;51.464;11.964;2023-06-19T10:31:02;9.93;;;8.93;;
46931;SDS011;32670;51.464;11.964;2023-06-19T10:33:29;10.43;;;9.57;;
46931;SDS011;32670;51.464;11.964;2023-06-19T10:35:57;10.67;;;9.70;;
46931;SDS011;32670;51.464;11.964;2023-06-19T10:38:24;10.43;;;9.53;;
46931;SDS011;32670;51.464;11.964;2023-06-19T10:40:50;10.27;;;9.37;;
46931;SDS011;32670;51.464;11.964;2023-06-19T10:43:19;11.07;;;10.07;;
46931;SDS011;32670;51.464;11.964;2023-06-19T10:45:46;10.97;;;9.97;;
46931;SDS011;32670;51.464;11.964;2023-06-19T10:48:17;10.83;;;9.93;;
46931;SDS011;32670;51.464;11.964;2023-06-19T10:50:47;10.47;;;9.57;;
46931;SDS011;32670;51.464;11.964;2023-06-19T10:53:22;10.33;;;9.40;;
46931;SDS011;32670;51.464;11.964;2023-06-19T10:55:58;10.67;;;9.80;;
46931;SDS011;32670;51.464;11.964;2023-06-19T10:58:25;10.30;;;9.37;;
46931;SDS011;32670;51.464;11.964;2023-06-19T11:00:52;10.80;;;9.90;;
46931;SDS011;32670;51.464;11.964;2023-06-19T11:03:18;10.53;;;9.63;;
46931;SDS011;32670;51.464;11.964;2023-06-19T11:05:44;10.37;;;9.47;;
46931;SDS011;32670;51.464;11.964;2023-06-19T11:08:10;10.57;;;9.63;;
46931;SDS011;32670;51.464;11.964;2023-06-19T11:10:41;10.70;;;9.60;;
46931;SDS011;32670;51.464;11.964;2023-06-19T11:13:07;10.50;;;9.60;;
46931;SDS011;32670;51.464;11.964;2023-06-19T11:15:38;10.33;;;9.43;;
46931;SDS011;32670;51.464;11.964;2023-06-19T11:18:03;10.40;;;9.50;;
46931;SDS011;32670;51.464;11.964;2023-06-19T11:20:29;10.80;;;9.90;;
46931;SDS011;32670;51.464;11.964;2023-06-19T11:22:56;10.87;;;10.00;;
46931;SDS011;32670;51.464;11.964;2023-06-19T11:25:34;10.57;;;9.57;;
46931;SDS011;32670;51.464;11.964;2023-06-19T11:28:05;10.60;;;9.70;;
46931;SDS011;32670;51.464;11.964;2023-06-19T11:30:38;10.67;;;9.77;;
46931;SDS011;32670;51.464;11.964;2023-06-19T11:33:14;11.67;;;10.70;;
46931;SDS011;32670;51.464;11.964;2023-06-19T11:35:52;10.70;;;9.80;;
46931;SDS011;32670;51.464;11.964;2023-06-19T11:38:19;11.07;;;10.07;;
46931;SDS011;32670;51.464;11.964;2023-06-19T11:40:46;10.47;;;9.57;;
46931;SDS011;32670;51.464;11.964;2023-06-19T11:43:11;11.60;;;10.60;;
46931;SDS011;32670;51.464;11.964;2023-06-19T11:45:49;11.47;;;10.50;;
46931;SDS011;32670;51.464;11.964;2023-06-19T11:48:25;11.77;;;10.67;;
46931;SDS011;32670;51.464;11.964;2023-06-19T11:50:51;12.37;;;11.30;;
46931;SDS011;32670;51.464;11.964;2023-06-19T11:53:18;11.90;;;10.90;;
46931;SDS011;32670;51.464;11.964;2023-06-19T11:55:47;12.47;;;11.17;;
46931;SDS011;32670;51.464;11.964;2023-06-19T11:58:13;12.13;;;11.07;;
46931;SDS011;32670;51.464;11.964;2023-06-19T12:00:40;12.20;;;11.10;;
46931;SDS011;32670;51.464;11.964;2023-06-19T12:03:06;13.00;;;11.73;;
46931;SDS011;32670;51.464;11.964;2023-06-19T12:05:32;12.43;;;11.33;;
46931;SDS011;32670;51.464;11.964;2023-06-19T12:07:58;11.97;;;10.90;;
46931;SDS011;32670;51.464;11.964;2023-06-19T12:10:26;12.87;;;11.67;;
46931;SDS011;32670;51.464;11.964;2023-06-19T12:12:52;12.80;;;11.70;;
46931;SDS011;32670;51.464;11.964;2023-06-19T12:15:18;12.37;;;11.20;;
46931;SDS011;32670;51.464;11.964;2023-06-19T12:17:43;12.60;;;11.50;;
46931;SDS011;32670;51.464;11.964;2023-06-19T12:20:10;12.40;;;11.30;;
46931;SDS011;32670;51.464;11.964;2023-06-19T12:22:36;12.93;;;11.73;;
46931;SDS011;32670;51.464;11.964;2023-06-19T12:25:01;13.10;;;12.00;;
46931;SDS011;32670;51.464;11.964;2023-06-19T12:27:27;13.00;;;11.90;;
46931;SDS011;32670;51.464;11.964;2023-06-19T12:29:52;13.40;;;12.10;;
46931;SDS011;32670;51.464;11.964;2023-06-19T12:32:18;12.13;;;11.13;;
46931;SDS011;32670;51.464;11.964;2023-06-19T12:34:43;13.27;;;12.17;;
46931;SDS011;32670;51.464;11.964;2023-06-19T12:37:11;13.20;;;12.10;;
46931;SDS011;32670;51.464;11.964;2023-06-19T12:39:42;13.77;;;12.57;;
46931;SDS011;32670;51.464;11.964;2023-06-19T12:42:08;12.63;;;11.53;;
46931;SDS011;32670;51.464;11.964;2023-06-19T12:44:34;13.03;;;11.83;;
46931;SDS011;32670;51.464;11.964;2023-06-19T12:46:59;12.80;;;11.70;;
46931;SDS011;32670;51.464;11.964;2023-06-19T12:49:25;14.40;;;13.20;;
46931;SDS011;32670;51.464;11.964;2023-06-19T12:51:51;15.60;;;14.20;;
46931;SDS011;32670;51.464;11.964;2023-06-19T12:54:17;15.20;;;13.83;;
46931;SDS011;32670;51.464;11.964;2023-06-19T12:56:42;14.17;;;12.93;;
46931;SDS011;32670;51.464;11.964;2023-06-19T12:59:08;14.57;;;13.30;;
46931;SDS011;32670;51.464;11.964;2023-06-19T13:01:34;14.60;;;13.20;;
46931;SDS011;32670;51.464;11.964;2023-06-19T13:03:59;14.00;;;12.80;;
46931;SDS011;32670;51.464;11.964;2023-06-19T13:06:25;14.57;;;13.20;;
46931;SDS011;32670;51.464;11.964;2023-06-19T13:08:50;14.73;;;13.33;;
46931;SDS011;32670;51.464;11.964;2023-06-19T13:11:16;14.47;;;13.17;;
46931;SDS011;32670;51.464;11.964;2023-06-19T13:13:41;14.10;;;12.87;;
46931;SDS011;32670;51.464;11.964;2023-06-19T13:16:07;14.63;;;13.33;;
46931;SDS011;32670;51.464;11.964;2023-06-19T13:18:34;14.37;;;13.00;;
46931;SDS011;32670;51.464;11.964;2023-06-19T13:21:00;14.87;;;13.57;;
46931;SDS011;32670;51.464;11.964;2023-06-19T13:23:25;14.50;;;13.20;;
46931;SDS011;32670;51.464;11.964;2023-06-19T13:25:51;14.73;;;13.40;;
46931;SDS011;32670;51.464;11.964;2023-06-19T13:28:16;13.97;;;12.77;;
46931;SDS011;32670;51.464;11.964;2023-06-19T13:30:42;13.77;;;12.57;;
46931;SDS011;32670;51.464;11.964;2023-06-19T13:33:07;14.07;;;12.87;;
46931;SDS011;32670;51.464;11.964;2023-06-19T13:35:34;14.57;;;13.23;;
46931;SDS011;32670;51.464;11.964;2023-06-19T13:37:59;14.40;;;13.20;;
46931;SDS011;32670;51.464;11.964;2023-06-19T13:40:25;14.40;;;13.10;;
46931;SDS011;32670;51.464;11.964;2023-06-19T13:42:51;14.53;;;13.23;;
46931;SDS011;32670;51.464;11.964;2023-06-19T13:45:16;14.10;;;12.70;;
46931;SDS011;32670;51.464;11.964;2023-06-19T13:47:41;14.73;;;13.33;;
46931;SDS011;32670;51.464;11.964;2023-06-19T13:50:07;14.37;;;13.10;;
46931;SDS011;32670;51.464;11.964;2023-06-19T13:52:34;14.10;;;12.90;;
46931;SDS011;32670;51.464;11.964;2023-06-19T13:54:59;15.27;;;13.87;;
46931;SDS011;32670;51.464;11.964;2023-06-19T13:57:28;14.07;;;12.70;;
46931;SDS011;32670;51.464;11.964;2023-06-19T13:59:53;14.20;;;12.93;;
46931;SDS011;32670;51.464;11.964;2023-06-19T14:02:19;16.03;;;14.63;;
46931;SDS011;32670;51.464;11.964;2023-06-19T14:04:44;14.77;;;13.47;;
46931;SDS011;32670;51.464;11.964;2023-06-19T14:07:10;14.77;;;13.57;;
46931;SDS011;32670;51.464;11.964;2023-06-19T14:09:35;14.57;;;13.27;;
46931;SDS011;32670;51.464;11.964;2023-06-19T14:12:01;15.43;;;14.13;;
46931;SDS011;32670;51.464;11.964;2023-06-19T14:14:26;16.17;;;14.77;;
46931;SDS011;32670;51.464;11.964;2023-06-19T14:16:52;14.83;;;13.50;;
46931;SDS011;32670;51.464;11.964;2023-06-19T14:19:17;15.10;;;13.80;;
46931;SDS011;32670;51.464;11.964;2023-06-19T14:21:43;15.70;;;14.40;;
46931;SDS011;32670;51.464;11.964;2023-06-19T14:24:08;15.83;;;14.53;;
46931;SDS011;32670;51.464;11.964;2023-06-19T14:26:34;15.57;;;14.17;;